createdAt,value
2018-12-04T00:01:24.932Z,7.73
2018-12-04T00:02:24.890Z,7.70
2018-12-04T00:04:21.840Z,7.76
2018-12-04T00:05:21.786Z,7.66
2018-12-04T00:07:18.264Z,7.63
2018-12-04T00:08:18.220Z,7.66
2018-12-04T00:10:14.541Z,7.66
2018-12-04T00:11:14.481Z,7.60
2018-12-04T00:13:11.575Z,7.63
2018-12-04T00:14:11.521Z,7.60
2018-12-04T00:16:07.853Z,7.50
2018-12-04T00:17:07.809Z,7.47
2018-12-04T00:19:04.536Z,7.54
2018-12-04T00:20:04.470Z,7.42
2018-12-04T00:21:59.856Z,7.42
2018-12-04T00:22:59.810Z,7.51
2018-12-04T00:24:56.767Z,7.39
2018-12-04T00:25:56.713Z,7.36
2018-12-04T00:27:52.959Z,7.32
2018-12-04T00:28:52.913Z,7.37
2018-12-04T00:30:49.934Z,7.29
2018-12-04T00:31:49.884Z,7.30
2018-12-04T00:33:45.534Z,7.18
2018-12-04T00:34:45.476Z,7.19
2018-12-04T00:36:39.806Z,7.26
2018-12-04T00:37:39.761Z,7.23
2018-12-04T00:39:36.220Z,7.18
2018-12-04T00:40:36.160Z,7.19
2018-12-04T00:42:31.940Z,7.23
2018-12-04T00:43:31.887Z,7.23
2018-12-04T00:45:27.306Z,7.21
2018-12-04T00:46:27.254Z,7.21
2018-12-04T00:48:24.231Z,7.16
2018-12-04T00:49:24.188Z,7.19
2018-12-04T00:51:21.536Z,7.27
2018-12-04T00:52:21.471Z,7.29
2018-12-04T00:54:18.204Z,7.14
2018-12-04T00:55:18.131Z,7.14
2018-12-04T00:57:14.198Z,7.07
2018-12-04T00:58:14.151Z,7.14
2018-12-04T01:00:09.559Z,7.05
2018-12-04T01:01:09.502Z,7.00
2018-12-04T01:03:05.124Z,7.11
2018-12-04T01:04:05.093Z,7.18
2018-12-04T01:06:00.450Z,7.12
2018-12-04T01:07:00.395Z,7.01
2018-12-04T01:08:57.123Z,7.04
2018-12-04T01:09:57.076Z,7.00
2018-12-04T01:11:52.505Z,7.01
2018-12-04T01:12:52.445Z,7.00
2018-12-04T01:14:48.529Z,6.91
2018-12-04T01:15:48.471Z,6.96
2018-12-04T01:17:44.001Z,7.01
2018-12-04T01:18:43.960Z,6.90
2018-12-04T01:20:38.769Z,6.94
2018-12-04T01:21:38.712Z,6.91
2018-12-04T01:23:34.977Z,6.90
2018-12-04T01:24:34.933Z,6.89
2018-12-04T01:26:30.617Z,6.86
2018-12-04T01:27:30.561Z,6.86
2018-12-04T01:29:28.486Z,6.83
2018-12-04T01:30:28.442Z,6.83
2018-12-04T01:32:23.083Z,6.87
2018-12-04T01:33:23.027Z,6.96
2018-12-04T01:35:18.922Z,6.91
2018-12-04T01:36:18.866Z,6.99
2018-12-04T01:38:15.199Z,6.89
2018-12-04T01:39:15.154Z,6.87
2018-12-04T01:41:11.477Z,6.81
2018-12-04T01:42:11.416Z,6.86
2018-12-04T01:44:07.006Z,6.83
2018-12-04T01:45:06.963Z,6.73
2018-12-04T01:47:02.355Z,6.72
2018-12-04T01:48:02.298Z,6.65
2018-12-04T01:49:56.724Z,6.72
2018-12-04T01:50:56.680Z,6.63
2018-12-04T01:53:05.973Z,6.65
2018-12-04T01:54:05.922Z,6.63
2018-12-04T01:56:03.256Z,6.54
2018-12-04T01:57:03.202Z,6.60
2018-12-04T01:58:59.567Z,6.55
2018-12-04T01:59:59.523Z,6.51
2018-12-04T02:02:07.655Z,6.55
2018-12-04T02:03:07.600Z,6.48
2018-12-04T02:05:03.004Z,6.50
2018-12-04T02:06:02.958Z,6.35
2018-12-04T02:07:57.349Z,6.38
2018-12-04T02:08:57.297Z,6.28
2018-12-04T02:10:52.934Z,6.46
2018-12-04T02:11:52.877Z,6.40
2018-12-04T02:13:49.707Z,6.63
2018-12-04T02:14:49.661Z,6.54
2018-12-04T02:16:46.142Z,6.54
2018-12-04T02:17:46.086Z,6.39
2018-12-04T02:19:41.930Z,6.30
2018-12-04T02:20:41.886Z,6.38
2018-12-04T02:22:38.889Z,6.28
2018-12-04T02:23:38.822Z,6.19
2018-12-04T02:25:34.635Z,6.21
2018-12-04T02:26:34.588Z,6.27
2018-12-04T02:28:31.578Z,6.20
2018-12-04T02:29:31.519Z,6.25
2018-12-04T02:31:27.696Z,6.24
2018-12-04T02:32:27.652Z,6.27
2018-12-04T02:34:23.497Z,6.19
2018-12-04T02:35:23.432Z,6.19
2018-12-04T02:37:18.135Z,6.20
2018-12-04T02:38:18.081Z,6.20
2018-12-04T02:40:12.386Z,6.11
2018-12-04T02:41:12.337Z,6.14
2018-12-04T02:43:06.701Z,6.06
2018-12-04T02:44:06.644Z,5.99
2018-12-04T02:46:02.390Z,5.96
2018-12-04T02:47:02.346Z,5.98
2018-12-04T02:48:58.028Z,5.87
2018-12-04T02:49:57.961Z,5.92
2018-12-04T02:51:53.801Z,5.98
2018-12-04T02:52:53.753Z,5.99
2018-12-04T02:54:49.198Z,5.99
2018-12-04T02:55:49.142Z,6.02
2018-12-04T02:57:44.975Z,6.01
2018-12-04T02:58:44.923Z,5.95
2018-12-04T03:00:40.751Z,5.96
2018-12-04T03:01:40.702Z,6.02
2018-12-04T03:03:36.116Z,5.90
2018-12-04T03:04:36.061Z,5.90
2018-12-04T03:06:31.876Z,5.99
2018-12-04T03:07:31.841Z,5.88
2018-12-04T03:09:28.534Z,5.84
2018-12-04T03:10:28.476Z,5.87
2018-12-04T03:12:24.130Z,5.85
2018-12-04T03:13:24.062Z,5.83
2018-12-04T03:15:20.642Z,5.85
2018-12-04T03:16:20.586Z,5.75
2018-12-04T03:18:16.006Z,5.80
2018-12-04T03:19:15.948Z,5.80
2018-12-04T03:21:10.284Z,5.80
2018-12-04T03:22:10.275Z,5.67
2018-12-04T03:24:05.251Z,5.80
2018-12-04T03:25:05.187Z,5.65
2018-12-04T03:27:01.000Z,5.66
2018-12-04T03:28:00.950Z,5.67
2018-12-04T03:30:10.476Z,5.78
2018-12-04T03:31:10.408Z,5.75
2018-12-04T03:33:05.832Z,5.66
2018-12-04T03:34:05.761Z,5.65
2018-12-04T03:36:02.829Z,5.74
2018-12-04T03:37:02.780Z,5.73
2018-12-04T03:38:59.076Z,5.83
2018-12-04T03:39:59.015Z,5.81
2018-12-04T03:41:55.926Z,5.74
2018-12-04T03:42:55.885Z,5.70
2018-12-04T03:44:52.256Z,5.70
2018-12-04T03:45:52.201Z,5.70
2018-12-04T03:47:48.515Z,5.80
2018-12-04T03:48:48.468Z,5.83
2018-12-04T03:50:45.454Z,5.80
2018-12-04T03:51:45.396Z,5.78
2018-12-04T03:53:42.575Z,5.65
2018-12-04T03:54:42.507Z,5.67
2018-12-04T03:56:38.857Z,5.60
2018-12-04T03:57:38.812Z,5.66
2018-12-04T03:59:36.019Z,5.74
2018-12-04T04:00:35.961Z,5.67
2018-12-04T04:02:43.010Z,5.67
2018-12-04T04:03:42.970Z,5.63
2018-12-04T04:05:39.343Z,5.65
2018-12-04T04:06:39.287Z,5.69
2018-12-04T04:08:36.352Z,5.66
2018-12-04T04:09:36.301Z,5.56
2018-12-04T04:11:31.692Z,5.60
2018-12-04T04:12:31.632Z,5.56
2018-12-04T04:14:27.020Z,5.58
2018-12-04T04:15:26.963Z,5.47
2018-12-04T04:17:21.401Z,5.48
2018-12-04T04:18:21.357Z,5.49
2018-12-04T04:20:16.766Z,5.41
2018-12-04T04:21:16.702Z,5.38
2018-12-04T04:23:12.280Z,5.40
2018-12-04T04:24:12.232Z,5.42
2018-12-04T04:26:07.678Z,5.40
2018-12-04T04:27:07.610Z,5.33
2018-12-04T04:29:03.129Z,5.41
2018-12-04T04:30:03.085Z,5.41
2018-12-04T04:31:58.501Z,5.38
2018-12-04T04:32:58.446Z,5.37
2018-12-04T04:34:53.952Z,5.47
2018-12-04T04:35:53.905Z,5.41
2018-12-04T04:37:49.375Z,5.49
2018-12-04T04:38:49.317Z,5.56
2018-12-04T04:40:44.738Z,5.59
2018-12-04T04:41:44.683Z,5.45
2018-12-04T04:43:41.201Z,5.44
2018-12-04T04:44:41.154Z,5.40
2018-12-04T04:46:36.909Z,5.33
2018-12-04T04:47:36.864Z,5.33
2018-12-04T04:49:32.822Z,5.23
2018-12-04T04:50:32.778Z,5.15
2018-12-04T04:52:28.178Z,5.15
2018-12-04T04:53:28.118Z,5.12
2018-12-04T04:55:23.515Z,5.08
2018-12-04T04:56:23.468Z,5.06
2018-12-04T04:58:19.242Z,5.01
2018-12-04T04:59:19.273Z,4.91
2018-12-04T05:01:14.291Z,4.97
2018-12-04T05:02:14.233Z,4.90
2018-12-04T05:04:09.623Z,4.84
2018-12-04T05:05:09.569Z,4.86
2018-12-04T05:07:04.920Z,4.77
2018-12-04T05:08:04.861Z,4.87
2018-12-04T05:10:00.340Z,4.86
2018-12-04T05:11:00.291Z,4.91
2018-12-04T05:12:57.203Z,4.87
2018-12-04T05:13:57.144Z,4.94
2018-12-04T05:15:52.563Z,4.93
2018-12-04T05:16:52.517Z,4.87
2018-12-04T05:18:49.931Z,4.84
2018-12-04T05:19:49.874Z,4.88
2018-12-04T05:21:45.355Z,4.93
2018-12-04T05:22:45.295Z,4.88
2018-12-04T05:24:43.005Z,4.86
2018-12-04T05:25:42.959Z,4.84
2018-12-04T05:27:38.418Z,4.80
2018-12-04T05:28:38.360Z,4.74
2018-12-04T05:30:32.703Z,4.80
2018-12-04T05:31:32.670Z,4.79
2018-12-04T05:33:28.068Z,4.72
2018-12-04T05:34:28.008Z,4.80
2018-12-04T05:36:23.495Z,4.90
2018-12-04T05:37:23.447Z,4.77
2018-12-04T05:39:18.797Z,4.79
2018-12-04T05:40:18.739Z,4.77
2018-12-04T05:42:15.102Z,4.77
2018-12-04T05:43:15.043Z,4.83
2018-12-04T05:45:10.440Z,4.93
2018-12-04T05:46:10.391Z,4.84
2018-12-04T05:48:05.987Z,4.83
2018-12-04T05:49:05.928Z,4.80
2018-12-04T05:51:01.330Z,4.88
2018-12-04T05:52:01.284Z,4.79
2018-12-04T05:53:59.279Z,4.75
2018-12-04T05:54:59.214Z,4.83
2018-12-04T05:56:55.525Z,4.71
2018-12-04T05:57:55.481Z,4.74
2018-12-04T05:59:52.434Z,4.71
2018-12-04T06:00:52.372Z,4.79
2018-12-04T06:02:47.913Z,4.71
2018-12-04T06:03:47.856Z,4.79
2018-12-04T06:05:43.905Z,4.83
2018-12-04T06:06:43.859Z,4.88
2018-12-04T06:08:40.979Z,4.79
2018-12-04T06:09:40.919Z,4.79
2018-12-04T06:11:37.465Z,4.87
2018-12-04T06:12:37.417Z,4.80
2018-12-04T06:14:32.869Z,4.74
2018-12-04T06:15:32.812Z,4.79
2018-12-04T06:17:28.239Z,4.79
2018-12-04T06:18:28.180Z,4.72
2018-12-04T06:20:23.626Z,4.86
2018-12-04T06:21:23.578Z,4.75
2018-12-04T06:23:19.096Z,4.80
2018-12-04T06:24:19.042Z,4.71
2018-12-04T06:26:14.482Z,4.75
2018-12-04T06:27:14.430Z,4.75
2018-12-04T06:29:08.799Z,4.83
2018-12-04T06:30:08.743Z,4.77
2018-12-04T06:32:17.893Z,4.83
2018-12-04T06:33:17.843Z,4.75
2018-12-04T06:35:14.214Z,4.88
2018-12-04T06:36:14.158Z,4.80
2018-12-04T06:38:11.052Z,4.80
2018-12-04T06:39:10.995Z,4.80
2018-12-04T06:41:07.615Z,4.94
2018-12-04T06:42:07.573Z,4.88
2018-12-04T06:44:04.101Z,4.80
2018-12-04T06:45:04.042Z,4.75
2018-12-04T06:47:00.524Z,4.90
2018-12-04T06:48:00.474Z,4.86
2018-12-04T06:49:56.822Z,4.90
2018-12-04T06:50:56.768Z,4.86
2018-12-04T06:52:54.101Z,4.93
2018-12-04T06:53:54.034Z,4.91
2018-12-04T06:55:50.648Z,4.93
2018-12-04T06:56:50.604Z,4.94
2018-12-04T06:58:47.003Z,4.96
2018-12-04T06:59:46.943Z,5.02
2018-12-04T07:01:55.085Z,5.04
2018-12-04T07:02:55.044Z,5.04
2018-12-04T07:04:52.091Z,4.99
2018-12-04T07:05:52.033Z,5.02
2018-12-04T07:07:48.396Z,4.91
2018-12-04T07:08:48.347Z,5.06
2018-12-04T07:10:46.573Z,5.02
2018-12-04T07:11:46.516Z,5.01
2018-12-04T07:13:41.182Z,4.99
2018-12-04T07:14:41.126Z,4.90
2018-12-04T07:16:37.110Z,4.90
2018-12-04T07:17:37.032Z,5.06
2018-12-04T07:19:32.483Z,4.99
2018-12-04T07:20:32.424Z,4.97
2018-12-04T07:22:27.862Z,4.90
2018-12-04T07:23:27.812Z,4.94
2018-12-04T07:25:23.717Z,4.84
2018-12-04T07:26:23.211Z,4.91
2018-12-04T07:28:18.593Z,4.67
2018-12-04T07:29:18.536Z,4.68
2018-12-04T07:31:27.684Z,4.71
2018-12-04T07:32:27.637Z,4.65
2018-12-04T07:34:23.985Z,4.56
2018-12-04T07:35:23.928Z,4.57
2018-12-04T07:37:20.282Z,4.61
2018-12-04T07:38:20.233Z,4.56
2018-12-04T07:40:28.459Z,4.68
2018-12-04T07:41:28.401Z,4.59
2018-12-04T07:43:24.775Z,4.64
2018-12-04T07:44:24.715Z,4.67
2018-12-04T07:46:20.957Z,4.68
2018-12-04T07:47:20.895Z,4.68
2018-12-04T07:49:16.694Z,4.79
2018-12-04T07:50:16.627Z,4.91
2018-12-04T07:52:12.052Z,5.01
2018-12-04T07:53:11.998Z,5.15
2018-12-04T07:55:07.709Z,5.08
2018-12-04T07:56:07.646Z,5.15
2018-12-04T07:58:03.444Z,5.04
2018-12-04T07:59:03.400Z,5.01
2018-12-04T08:00:58.806Z,5.04
2018-12-04T08:01:58.748Z,5.01
2018-12-04T08:03:55.365Z,4.93
2018-12-04T08:04:55.303Z,4.88
2018-12-04T08:06:51.927Z,4.75
2018-12-04T08:07:51.882Z,4.65
2018-12-04T08:09:48.876Z,4.64
2018-12-04T08:10:48.821Z,4.65
2018-12-04T08:12:44.493Z,4.61
2018-12-04T08:13:44.447Z,4.59
2018-12-04T08:15:42.043Z,4.59
2018-12-04T08:16:41.984Z,4.56
2018-12-04T08:18:37.653Z,4.51
2018-12-04T08:19:37.602Z,4.46
2018-12-04T08:21:33.046Z,4.42
2018-12-04T08:22:32.990Z,4.42
2018-12-04T08:24:28.580Z,4.43
2018-12-04T08:25:28.314Z,4.47
2018-12-04T08:27:24.604Z,4.38
2018-12-04T08:28:24.379Z,4.42
2018-12-04T08:30:19.692Z,4.42
2018-12-04T08:31:19.641Z,4.54
2018-12-04T08:33:15.017Z,4.54
2018-12-04T08:34:14.970Z,4.47
2018-12-04T08:36:10.357Z,4.57
2018-12-04T08:37:10.300Z,4.64
2018-12-04T08:39:12.936Z,4.61
2018-12-04T08:40:07.081Z,4.51
2018-12-04T08:42:02.762Z,4.56
2018-12-04T08:43:02.712Z,4.75
2018-12-04T08:44:58.079Z,4.64
2018-12-04T08:45:58.022Z,4.67
2018-12-04T08:47:53.757Z,4.65
2018-12-04T08:48:53.719Z,4.62
2018-12-04T08:50:51.057Z,4.68
2018-12-04T08:51:50.996Z,4.71
2018-12-04T08:53:46.867Z,4.83
2018-12-04T08:54:46.823Z,4.77
2018-12-04T08:56:42.654Z,4.86
2018-12-04T08:57:42.599Z,4.86
2018-12-04T08:59:38.969Z,4.84
2018-12-04T09:00:38.906Z,4.86
2018-12-04T09:02:35.878Z,4.99
2018-12-04T09:03:35.831Z,4.94
2018-12-04T09:05:31.176Z,5.01
2018-12-04T09:06:31.118Z,5.14
2018-12-04T09:08:26.493Z,5.14
2018-12-04T09:09:26.447Z,5.02
2018-12-04T09:11:21.811Z,5.01
2018-12-04T09:12:21.755Z,5.01
2018-12-04T09:14:17.299Z,5.26
2018-12-04T09:15:17.253Z,5.22
2018-12-04T09:17:13.047Z,5.27
2018-12-04T09:18:13.016Z,5.29
2018-12-04T09:20:09.333Z,5.33
2018-12-04T09:21:09.261Z,5.33
2018-12-04T09:23:04.848Z,5.45
2018-12-04T09:24:04.752Z,5.35
2018-12-04T09:26:00.208Z,5.47
2018-12-04T09:27:05.324Z,5.56
2018-12-04T09:28:55.651Z,5.59
2018-12-04T09:29:55.668Z,5.55
2018-12-04T09:31:53.018Z,5.67
2018-12-04T09:32:52.962Z,5.70
2018-12-04T09:35:02.194Z,5.66
2018-12-04T09:36:02.119Z,5.78
2018-12-04T09:37:59.015Z,5.77
2018-12-04T09:38:58.968Z,5.75
2018-12-04T09:40:56.125Z,5.69
2018-12-04T09:41:56.065Z,5.81
2018-12-04T09:43:51.502Z,5.84
2018-12-04T09:44:51.453Z,5.85
2018-12-04T09:46:49.420Z,5.80
2018-12-04T09:47:49.365Z,5.80
2018-12-04T09:49:46.423Z,5.98
2018-12-04T09:50:46.376Z,5.95
2018-12-04T09:52:42.730Z,5.95
2018-12-04T09:53:42.673Z,6.05
2018-12-04T09:55:39.437Z,6.03
2018-12-04T09:56:39.377Z,6.02
2018-12-04T09:58:35.790Z,6.19
2018-12-04T09:59:39.453Z,6.25
2018-12-04T10:01:32.281Z,6.13
2018-12-04T10:02:32.482Z,6.24
2018-12-04T10:04:27.654Z,6.28
2018-12-04T10:05:27.608Z,6.11
2018-12-04T10:07:35.720Z,6.33
2018-12-04T10:08:35.655Z,6.30
2018-12-04T10:10:29.973Z,6.19
2018-12-04T10:11:29.925Z,6.20
2018-12-04T10:13:25.309Z,6.38
2018-12-04T10:14:25.247Z,6.32
2018-12-04T10:16:20.761Z,6.53
2018-12-04T10:17:20.707Z,6.54
2018-12-04T10:19:16.550Z,6.40
2018-12-04T10:20:16.500Z,6.38
2018-12-04T10:22:11.867Z,6.53
2018-12-04T10:23:11.808Z,6.58
2018-12-04T10:25:07.906Z,6.55
2018-12-04T10:26:07.858Z,6.61
2018-12-04T10:28:04.668Z,6.69
2018-12-04T10:29:04.617Z,6.71
2018-12-04T10:31:00.019Z,6.81
2018-12-04T10:31:59.969Z,6.79
2018-12-04T10:33:56.295Z,6.75
2018-12-04T10:34:56.231Z,6.65
2018-12-04T10:36:51.639Z,6.87
2018-12-04T10:37:51.583Z,6.87
2018-12-04T10:39:47.352Z,6.93
2018-12-04T10:40:47.305Z,6.89
2018-12-04T10:42:43.656Z,6.96
2018-12-04T10:43:43.598Z,7.01
2018-12-04T10:45:39.384Z,7.07
2018-12-04T10:46:39.341Z,7.16
2018-12-04T10:48:34.745Z,7.14
2018-12-04T10:49:34.687Z,7.15
2018-12-04T10:51:30.101Z,7.08
2018-12-04T10:52:30.060Z,7.21
2018-12-04T10:54:39.505Z,7.15
2018-12-04T10:55:39.450Z,7.19
2018-12-04T10:57:34.824Z,7.30
2018-12-04T10:58:34.768Z,7.47
2018-12-04T11:00:31.455Z,7.60
2018-12-04T11:01:31.405Z,7.51
2018-12-04T11:03:27.785Z,7.66
2018-12-04T11:04:27.720Z,7.71
2018-12-04T11:06:24.061Z,7.99
2018-12-04T11:07:24.017Z,8.03
2018-12-04T11:09:21.602Z,8.02
2018-12-04T11:10:21.544Z,8.06
2018-12-04T11:12:17.132Z,7.76
2018-12-04T11:13:17.075Z,7.66
2018-12-04T11:15:13.865Z,7.36
2018-12-04T11:16:13.820Z,7.26
2018-12-04T11:18:10.387Z,7.11
2018-12-04T11:19:10.332Z,7.07
2018-12-04T11:21:06.681Z,7.14
2018-12-04T11:22:06.628Z,7.19
2018-12-04T11:24:03.461Z,7.15
2018-12-04T11:25:03.405Z,7.37
2018-12-04T11:26:58.751Z,7.48
2018-12-04T11:27:58.712Z,7.52
2018-12-04T11:29:56.316Z,7.58
2018-12-04T11:30:56.256Z,7.58
2018-12-04T11:32:52.906Z,7.55
2018-12-04T11:33:52.852Z,7.44
2018-12-04T11:35:50.230Z,7.48
2018-12-04T11:36:50.185Z,7.48
2018-12-04T11:38:45.642Z,7.51
2018-12-04T11:39:45.585Z,7.37
2018-12-04T11:41:42.096Z,7.50
2018-12-04T11:42:42.049Z,7.36
2018-12-04T11:44:37.438Z,7.34
2018-12-04T11:45:37.376Z,7.50
2018-12-04T11:47:33.893Z,7.52
2018-12-04T11:48:33.739Z,7.60
2018-12-04T11:50:30.081Z,7.66
2018-12-04T11:51:30.028Z,7.74
2018-12-04T11:53:26.793Z,7.79
2018-12-04T11:54:26.728Z,7.71
2018-12-04T11:56:23.110Z,7.69
2018-12-04T11:57:23.062Z,7.74
2018-12-04T11:59:20.157Z,7.74
2018-12-04T12:00:20.098Z,7.70
2018-12-04T12:02:28.262Z,7.62
2018-12-04T12:03:28.215Z,7.69
2018-12-04T12:05:25.740Z,7.69
2018-12-04T12:06:25.682Z,7.76
2018-12-04T12:08:22.231Z,8.00
2018-12-04T12:09:22.174Z,8.02
2018-12-04T12:11:17.579Z,8.00
2018-12-04T12:12:17.515Z,7.99
2018-12-04T12:14:13.035Z,8.13
2018-12-04T12:15:18.022Z,8.18
2018-12-04T12:17:09.288Z,8.17
2018-12-04T12:18:09.242Z,8.25
2018-12-04T12:20:06.592Z,8.27
2018-12-04T12:21:06.533Z,8.32
2018-12-04T12:23:02.879Z,8.47
2018-12-04T12:24:02.834Z,8.61
2018-12-04T12:25:58.963Z,8.65
2018-12-04T12:26:58.906Z,8.61
2018-12-04T12:28:55.195Z,8.75
2018-12-04T12:29:55.149Z,8.68
2018-12-04T12:31:51.575Z,8.55
2018-12-04T12:32:51.520Z,8.50
2018-12-04T12:34:47.327Z,8.67
2018-12-04T12:35:47.266Z,8.71
2018-12-04T12:37:42.754Z,8.85
2018-12-04T12:38:42.710Z,8.82
2018-12-04T12:40:37.070Z,8.91
2018-12-04T12:41:37.941Z,8.89
2018-12-04T12:43:32.409Z,8.70
2018-12-04T12:44:32.365Z,8.63
2018-12-04T12:46:41.915Z,8.60
2018-12-04T12:47:41.464Z,8.47
2018-12-04T12:49:37.802Z,8.42
2018-12-04T12:50:37.747Z,8.32
2018-12-04T12:52:46.015Z,8.34
2018-12-04T12:53:45.969Z,8.27
2018-12-04T12:55:41.920Z,8.14
2018-12-04T12:56:41.541Z,8.10
2018-12-04T12:58:36.946Z,8.14
2018-12-04T12:59:36.901Z,8.09
2018-12-04T13:01:45.593Z,8.09
2018-12-04T13:02:45.540Z,8.04
2018-12-04T13:04:42.059Z,8.13
2018-12-04T13:05:41.874Z,8.04
2018-12-04T13:07:38.362Z,7.99
2018-12-04T13:08:38.306Z,8.02
2018-12-04T13:10:34.666Z,8.03
2018-12-04T13:11:34.612Z,7.99
2018-12-04T13:13:36.744Z,8.04
2018-12-04T13:14:30.931Z,8.03
2018-12-04T13:16:27.354Z,8.03
2018-12-04T13:17:27.299Z,7.95
2018-12-04T13:19:24.181Z,8.03
2018-12-04T13:20:24.135Z,8.00
2018-12-04T13:22:21.021Z,8.03
2018-12-04T13:23:20.968Z,7.96
2018-12-04T13:25:17.366Z,7.95
2018-12-04T13:26:17.295Z,7.96
2018-12-04T13:28:13.898Z,8.00
2018-12-04T13:29:13.779Z,7.88
2018-12-04T13:31:10.634Z,8.03
2018-12-04T13:32:10.575Z,7.99
2018-12-04T13:34:06.952Z,8.04
2018-12-04T13:35:06.909Z,8.04
2018-12-04T13:37:04.490Z,8.03
2018-12-04T13:38:04.430Z,8.03
2018-12-04T13:40:00.920Z,8.02
2018-12-04T13:41:00.876Z,8.00
2018-12-04T13:42:57.503Z,7.85
2018-12-04T13:43:57.445Z,7.89
2018-12-04T13:45:53.797Z,7.95
2018-12-04T13:46:53.745Z,7.96
2018-12-04T13:48:50.126Z,7.94
2018-12-04T13:49:50.086Z,7.91
2018-12-04T13:51:47.140Z,7.74
2018-12-04T13:52:47.086Z,7.79
2018-12-04T13:54:43.458Z,7.71
2018-12-04T13:55:43.413Z,7.73
2018-12-04T13:57:39.786Z,7.89
2018-12-04T13:58:39.717Z,7.91
2018-12-04T14:00:36.229Z,7.89
2018-12-04T14:01:36.174Z,7.91
2018-12-04T14:03:32.588Z,7.95
2018-12-04T14:04:32.533Z,7.86
2018-12-04T14:06:28.170Z,7.82
2018-12-04T14:07:28.099Z,7.81
2018-12-04T14:09:26.135Z,7.74
2018-12-04T14:10:23.522Z,7.71
2018-12-04T14:12:19.873Z,7.70
2018-12-04T14:13:19.821Z,7.71
2018-12-04T14:15:16.673Z,7.71
2018-12-04T14:16:16.638Z,7.71
2018-12-04T14:18:13.097Z,7.69
2018-12-04T14:19:13.012Z,7.69
2018-12-04T14:21:09.927Z,7.79
2018-12-04T14:22:09.892Z,7.77
2018-12-04T14:24:06.820Z,7.66
2018-12-04T14:25:06.771Z,7.62
2018-12-04T14:27:03.624Z,7.60
2018-12-04T14:28:03.506Z,7.54
2018-12-04T14:30:01.289Z,7.54
2018-12-04T14:31:01.273Z,7.52
2018-12-04T14:32:58.168Z,7.54
2018-12-04T14:33:58.102Z,7.60
2018-12-04T14:35:54.406Z,7.54
2018-12-04T14:36:54.355Z,7.51
2018-12-04T14:38:51.475Z,7.33
2018-12-04T14:39:51.395Z,7.37
2018-12-04T14:41:47.900Z,7.37
2018-12-04T14:42:48.001Z,7.18
2018-12-04T14:44:43.251Z,7.19
2018-12-04T14:45:43.198Z,7.12
2018-12-04T14:47:40.043Z,7.23
2018-12-04T14:48:40.029Z,7.18
2018-12-04T14:50:36.432Z,7.14
2018-12-04T14:51:36.383Z,7.01
2018-12-04T14:53:33.002Z,6.90
2018-12-04T14:54:32.947Z,6.90
2018-12-04T14:56:29.524Z,6.99
2018-12-04T14:57:29.475Z,6.87
2018-12-04T14:59:25.849Z,6.89
2018-12-04T15:00:25.868Z,6.90
2018-12-04T15:02:33.456Z,6.87
2018-12-04T15:03:33.418Z,6.87
2018-12-04T15:05:29.033Z,6.82
2018-12-04T15:06:28.974Z,6.82
2018-12-04T15:08:26.075Z,6.72
2018-12-04T15:09:26.046Z,6.68
2018-12-04T15:11:21.474Z,6.69
2018-12-04T15:12:21.429Z,6.73
2018-12-04T15:14:17.902Z,6.72
2018-12-04T15:15:17.848Z,6.76
2018-12-04T15:17:13.314Z,6.64
2018-12-04T15:18:13.255Z,6.64
2018-12-04T15:20:10.795Z,6.63
2018-12-04T15:21:10.788Z,6.54
2018-12-04T15:23:07.341Z,6.50
2018-12-04T15:24:08.004Z,6.36
2018-12-04T15:26:02.970Z,6.38
2018-12-04T15:27:02.903Z,6.32
2018-12-04T15:28:59.245Z,6.19
2018-12-04T15:29:59.276Z,6.27
2018-12-04T15:31:55.519Z,6.21
2018-12-04T15:32:55.450Z,6.28
2018-12-04T15:34:52.041Z,6.10
2018-12-04T15:35:52.021Z,6.13
2018-12-04T15:37:47.641Z,6.05
2018-12-04T15:38:47.579Z,6.03
2018-12-04T15:40:44.094Z,6.10
2018-12-04T15:41:46.231Z,6.06
2018-12-04T15:43:39.548Z,6.05
2018-12-04T15:44:39.507Z,5.87
2018-12-04T15:46:34.654Z,5.84
2018-12-04T15:47:34.589Z,5.93
2018-12-04T15:49:30.171Z,5.99
2018-12-04T15:50:30.114Z,5.98
2018-12-04T15:52:26.118Z,5.96
2018-12-04T15:53:26.103Z,5.96
2018-12-04T15:55:23.293Z,5.77
2018-12-04T15:56:23.235Z,5.63
2018-12-04T15:58:18.844Z,5.59
2018-12-04T15:59:18.798Z,5.60
2018-12-04T16:01:15.489Z,5.52
2018-12-04T16:02:15.431Z,5.51
2018-12-04T16:04:10.959Z,5.67
2018-12-04T16:05:10.901Z,5.69
2018-12-04T16:07:06.292Z,5.62
2018-12-04T16:08:06.248Z,5.66
2018-12-04T16:10:01.662Z,5.59
2018-12-04T16:11:01.606Z,5.55
2018-12-04T16:12:56.971Z,5.60
2018-12-04T16:13:56.922Z,5.51
2018-12-04T16:15:53.377Z,5.52
2018-12-04T16:16:53.318Z,5.47
2018-12-04T16:18:50.518Z,5.45
2018-12-04T16:19:50.470Z,5.40
2018-12-04T16:21:46.778Z,5.35
2018-12-04T16:22:46.725Z,5.41
2018-12-04T16:24:43.102Z,5.44
2018-12-04T16:25:43.040Z,5.37
2018-12-04T16:27:38.980Z,5.29
2018-12-04T16:28:38.934Z,5.26
2018-12-04T16:30:34.688Z,5.24
2018-12-04T16:31:34.632Z,5.24
2018-12-04T16:33:30.045Z,5.27
2018-12-04T16:34:29.989Z,5.23
2018-12-04T16:36:26.432Z,5.38
2018-12-04T16:37:26.376Z,5.33
2018-12-04T16:39:22.676Z,5.27
2018-12-04T16:40:22.631Z,5.23
2018-12-04T16:42:18.491Z,5.23
2018-12-04T16:43:18.435Z,5.14
2018-12-04T16:45:16.091Z,5.12
2018-12-04T16:46:16.033Z,5.15
2018-12-04T16:48:11.996Z,5.01
2018-12-04T16:49:11.953Z,5.06
2018-12-04T16:51:06.570Z,4.93
2018-12-04T16:52:06.507Z,4.96
2018-12-04T16:54:01.899Z,4.94
2018-12-04T16:55:01.852Z,4.97
2018-12-04T16:56:57.284Z,4.94
2018-12-04T16:57:57.245Z,4.87
2018-12-04T16:59:52.632Z,4.77
2018-12-04T17:00:52.574Z,4.68
2018-12-04T17:02:47.997Z,4.67
2018-12-04T17:03:47.938Z,4.59
2018-12-04T17:05:43.342Z,4.53
2018-12-04T17:06:43.284Z,4.68
2018-12-04T17:08:38.883Z,4.62
2018-12-04T17:09:38.844Z,4.62
2018-12-04T17:11:35.493Z,4.61
2018-12-04T17:12:35.437Z,4.68
2018-12-04T17:14:31.914Z,4.53
2018-12-04T17:15:31.868Z,4.50
2018-12-04T17:17:27.607Z,4.57
2018-12-04T17:18:27.549Z,4.49
2018-12-04T17:20:23.533Z,4.43
2018-12-04T17:21:23.474Z,4.42
2018-12-04T17:23:20.895Z,4.39
2018-12-04T17:24:20.850Z,4.38
2018-12-04T17:26:16.904Z,4.29
2018-12-04T17:27:16.849Z,4.42
2018-12-04T17:29:12.237Z,4.38
2018-12-04T17:30:12.191Z,4.36
2018-12-04T17:32:07.613Z,4.29
2018-12-04T17:33:07.555Z,4.36
2018-12-04T17:35:02.914Z,4.44
2018-12-04T17:36:02.868Z,4.32
2018-12-04T17:37:59.633Z,4.32
2018-12-04T17:38:59.582Z,4.44
2018-12-04T17:40:55.107Z,4.32
2018-12-04T17:41:55.044Z,4.36
2018-12-04T17:43:50.416Z,4.42
2018-12-04T17:44:50.371Z,4.39
2018-12-04T17:46:47.560Z,4.43
2018-12-04T17:47:47.509Z,4.42
2018-12-04T17:49:44.844Z,4.29
2018-12-04T17:50:44.797Z,4.31
2018-12-04T17:52:40.708Z,4.34
2018-12-04T17:53:40.651Z,4.26
2018-12-04T17:55:36.306Z,4.29
2018-12-04T17:56:36.233Z,4.17
2018-12-04T17:58:31.584Z,4.16
2018-12-04T17:59:31.539Z,4.10
2018-12-04T18:01:27.230Z,4.20
2018-12-04T18:02:27.173Z,4.14
2018-12-04T18:04:24.058Z,4.26
2018-12-04T18:05:24.011Z,4.29
2018-12-04T18:07:19.475Z,4.24
2018-12-04T18:08:19.413Z,4.32
2018-12-04T18:10:14.796Z,4.35
2018-12-04T18:11:14.747Z,4.29
2018-12-04T18:13:10.142Z,4.14
2018-12-04T18:14:10.082Z,4.08
2018-12-04T18:16:06.467Z,4.10
2018-12-04T18:17:06.408Z,4.10
2018-12-04T18:19:01.721Z,4.08
2018-12-04T18:20:01.673Z,4.13
2018-12-04T18:21:59.179Z,4.16
2018-12-04T18:22:59.123Z,4.25
2018-12-04T18:24:55.523Z,4.16
2018-12-04T18:25:55.472Z,4.16
2018-12-04T18:27:51.860Z,4.14
2018-12-04T18:28:51.803Z,4.10
2018-12-04T18:30:47.344Z,4.13
2018-12-04T18:31:47.296Z,4.16
2018-12-04T18:33:43.488Z,4.17
2018-12-04T18:34:43.432Z,4.13
2018-12-04T18:36:39.213Z,4.13
2018-12-04T18:37:39.140Z,4.00
2018-12-04T18:39:34.534Z,4.06
2018-12-04T18:40:34.484Z,3.96
2018-12-04T18:42:29.352Z,4.04
2018-12-04T18:43:29.299Z,4.02
2018-12-04T18:45:24.732Z,4.04
2018-12-04T18:46:24.683Z,3.99
2018-12-04T18:48:20.488Z,4.00
2018-12-04T18:49:20.430Z,3.99
2018-12-04T18:51:15.842Z,3.93
2018-12-04T18:52:15.792Z,3.92
2018-12-04T18:54:12.928Z,4.00
2018-12-04T18:55:12.871Z,4.06
2018-12-04T18:57:08.271Z,4.04
2018-12-04T18:58:08.211Z,3.95
2018-12-04T19:00:04.475Z,4.04
2018-12-04T19:01:04.427Z,4.04
2018-12-04T19:03:01.147Z,4.00
2018-12-04T19:04:01.088Z,4.00
2018-12-04T19:05:58.458Z,4.02
2018-12-04T19:06:58.414Z,3.98
2018-12-04T19:08:53.888Z,3.96
2018-12-04T19:09:53.833Z,4.02
2018-12-04T19:11:49.753Z,3.96
2018-12-04T19:12:49.708Z,4.00
2018-12-04T19:14:45.140Z,4.11
2018-12-04T19:15:45.082Z,4.00
2018-12-04T19:17:40.449Z,3.96
2018-12-04T19:18:40.389Z,3.95
2018-12-04T19:20:35.784Z,4.00
2018-12-04T19:21:35.733Z,3.98
2018-12-04T19:23:34.105Z,4.04
2018-12-04T19:24:34.047Z,4.00
2018-12-04T19:26:29.442Z,3.98
2018-12-04T19:27:29.396Z,4.06
2018-12-04T19:29:25.866Z,3.98
2018-12-04T19:30:25.810Z,4.08
2018-12-04T19:32:21.749Z,3.96
2018-12-04T19:33:21.704Z,4.00
2018-12-04T19:35:18.284Z,4.06